Vremea acum in Blaj - Romania

Vrei sa afli care e starea vremii acum in Alba - Romania? Dorim sa iti furnizam starea vremii pentru Alba - Romania. Starea vremii Alba - Romania pentru astazi.

Vremea acum in Blaj

Temperatura: 10 °C

Se simte ca: 10 °C
Innorat: 75 %
Precipitatii: 65 %
Presiune atmosferica: 1020 hPa
Umiditate: 94%
Vizibilitate: 7 km
Vantul bate din SW cu 0 km/h

Evolutia vremii in Blaj pe ore

Ora: 06:00
Noros
Temperatura: 11.5°C
Sansa de precipitatii: 65%
Ora Descriere Temp Se simte Precipitatii Umiditate Vant
00:00Parțial noros12.4°12.6°40%81%SW 4.3 KM/H
01:00Ploi pe porţiuni în apropiere12.1°12.5°20%82%SW 4 KM/H
02:00Parțial noros11.9°12.3°0%84%SW 3.6 KM/H
03:00Ploi pe porţiuni în apropiere11.6°11.9°32%86%SW 3.2 KM/H
04:00Parțial noros11.3°11.4°65%87%SW 2.9 KM/H
05:00Ploi pe porţiuni în apropiere11°11°97%89%SW 2.5 KM/H
06:00Noros11.5°11.5°65%87%SW 2.2 KM/H
07:00Ploi pe porţiuni în apropiere12°12°32%85%SW 1.4 KM/H
08:00Noros12.5°12.5°0%82%SW 1.1 KM/H
09:00Parțial noros14.1°14.1°0%75%WSW 1.4 KM/H
10:00Noros15.7°15.7°0%67%W 1.8 KM/H
11:00Parțial noros17.3°17.3°0%59%WNW 2.2 KM/H
12:00Noros18.1°18.1°0%56%WNW 2.9 KM/H
13:00Parțial noros19°19°0%53%NW 4 KM/H
14:00Noros19.8°19.8°0%49%NW 4.7 KM/H
15:00Parțial noros19.2°19.2°0%51%NW 4.7 KM/H
16:00Noros18.7°18.7°0%53%WNW 4.3 KM/H
17:00Parțial noros18.1°18.1°0%56%WNW 4.3 KM/H
18:00Noros17°17.1°0%60%WNW 4.3 KM/H
19:00Parțial noros15.8°16.2°0%64%W 4.3 KM/H
20:00Noros14.7°15.2°0%69%W 4.3 KM/H
21:00Cer acoperit14.2°14.6°0%71%W 4.3 KM/H
22:00Noros13.6°14.1°0%73%WSW 4.3 KM/H
23:00Cer acoperit13.1°13.5°0%75%WSW 4.3 KM/H